createdAt,value
2018-02-09T00:00:11.921Z,45.03
2018-02-09T00:02:40.030Z,41.40
2018-02-09T00:05:08.435Z,48.83
2018-02-09T00:07:36.799Z,43.50
2018-02-09T00:10:05.432Z,42.63
2018-02-09T00:12:33.699Z,41.20
2018-02-09T00:15:02.625Z,45.80
2018-02-09T00:17:30.893Z,41.67
2018-02-09T00:19:59.657Z,44.60
2018-02-09T00:22:38.811Z,44.20
2018-02-09T00:25:15.330Z,46.47
2018-02-09T00:27:43.603Z,42.37
2018-02-09T00:30:14.410Z,43.10
2018-02-09T00:32:42.694Z,40.80
2018-02-09T00:35:12.853Z,43.57
2018-02-09T00:37:41.142Z,45.30
2018-02-09T00:40:14.487Z,43.30
2018-02-09T00:42:42.762Z,44.07
2018-02-09T00:45:11.035Z,48.47
2018-02-09T00:47:39.467Z,42.90
2018-02-09T00:50:08.482Z,45.07
2018-02-09T00:52:36.753Z,43.50
2018-02-09T00:55:08.414Z,48.03
2018-02-09T00:57:36.686Z,47.43
2018-02-09T01:00:05.791Z,46.77
2018-02-09T01:02:34.062Z,43.80
2018-02-09T01:05:02.321Z,47.03
2018-02-09T01:07:30.583Z,44.23
2018-02-09T01:09:58.867Z,43.03
2018-02-09T01:12:27.238Z,44.00
2018-02-09T01:14:55.526Z,44.57
2018-02-09T01:17:23.885Z,41.30
2018-02-09T01:19:52.170Z,45.57
2018-02-09T01:22:20.454Z,45.20
2018-02-09T01:24:50.101Z,44.37
2018-02-09T01:27:18.386Z,45.53
2018-02-09T01:29:46.660Z,45.10
2018-02-09T01:32:14.926Z,44.50
2018-02-09T01:34:43.215Z,47.30
2018-02-09T01:37:11.479Z,45.33
2018-02-09T01:39:39.756Z,46.30
2018-02-09T01:42:08.143Z,48.20
2018-02-09T01:44:36.402Z,45.50
2018-02-09T01:47:04.661Z,45.93
2018-02-09T01:49:32.956Z,46.70
2018-02-09T01:52:01.242Z,46.50
2018-02-09T01:54:29.507Z,44.37
2018-02-09T01:56:57.905Z,46.17
2018-02-09T01:59:26.182Z,43.33
2018-02-09T02:01:54.477Z,47.17
2018-02-09T02:04:22.754Z,46.20
2018-02-09T02:06:51.037Z,45.63
2018-02-09T02:11:58.345Z,41.83
2018-02-09T02:14:26.631Z,44.13
2018-02-09T02:16:55.209Z,45.83
2018-02-09T02:19:23.483Z,45.70
2018-02-09T02:21:51.767Z,48.27
2018-02-09T02:24:20.033Z,42.93
2018-02-09T02:26:47.973Z,45.80
2018-02-09T02:29:16.292Z,43.10
2018-02-09T02:31:44.640Z,44.80
2018-02-09T02:34:12.964Z,44.43
2018-02-09T02:36:41.316Z,48.30
2018-02-09T02:39:09.574Z,44.47
2018-02-09T02:41:37.871Z,45.80
2018-02-09T02:44:06.138Z,46.23
2018-02-09T02:46:34.418Z,42.77
2018-02-09T02:49:02.509Z,48.40
2018-02-09T02:51:30.781Z,49.30
2018-02-09T02:53:59.062Z,46.27
2018-02-09T02:56:27.329Z,44.57
2018-02-09T02:58:56.532Z,49.07
2018-02-09T03:01:24.808Z,44.80
2018-02-09T03:03:53.073Z,46.97
2018-02-09T03:06:21.341Z,46.50
2018-02-09T03:08:49.606Z,48.43
2018-02-09T03:11:17.883Z,47.10
2018-02-09T03:13:46.150Z,46.47
2018-02-09T03:16:14.414Z,45.80
2018-02-09T03:18:42.669Z,45.43
2018-02-09T03:21:10.942Z,43.73
2018-02-09T03:23:39.491Z,46.60
2018-02-09T03:26:07.760Z,46.43
2018-02-09T03:28:36.647Z,42.77
2018-02-09T03:31:04.927Z,47.47
2018-02-09T03:33:33.813Z,47.33
2018-02-09T03:36:02.069Z,45.73
2018-02-09T03:38:30.339Z,46.97
2018-02-09T03:40:58.776Z,48.57
2018-02-09T03:43:27.096Z,46.27
2018-02-09T03:45:55.735Z,46.47
2018-02-09T03:48:24.027Z,45.60
2018-02-09T03:50:52.325Z,46.77
2018-02-09T03:53:20.602Z,43.30
2018-02-09T03:55:48.871Z,38.63
2018-02-09T03:58:17.147Z,42.10
2018-02-09T04:00:45.074Z,41.83
2018-02-09T04:03:13.342Z,41.67
2018-02-09T04:05:41.602Z,43.20
2018-02-09T04:08:09.865Z,43.40
2018-02-09T04:10:38.169Z,43.13
2018-02-09T04:13:06.449Z,42.07
2018-02-09T04:15:34.731Z,42.70
2018-02-09T04:18:03.100Z,43.50
2018-02-09T04:20:31.350Z,42.30
2018-02-09T04:22:59.625Z,43.30
2018-02-09T04:25:27.634Z,42.60
2018-02-09T04:27:55.900Z,43.40
2018-02-09T04:30:24.178Z,45.93
2018-02-09T04:32:52.474Z,42.20
2018-02-09T04:35:20.774Z,43.10
2018-02-09T04:37:49.066Z,42.80
2018-02-09T04:40:17.342Z,45.77
2018-02-09T04:42:45.619Z,40.23
2018-02-09T04:45:17.134Z,42.47
2018-02-09T04:47:46.305Z,43.90
2018-02-09T04:50:15.763Z,41.67
2018-02-09T04:52:44.014Z,43.80
2018-02-09T04:55:13.745Z,43.43
2018-02-09T04:57:42.001Z,45.50
2018-02-09T05:00:10.498Z,43.30
2018-02-09T05:02:38.776Z,42.50
2018-02-09T05:05:11.889Z,41.30
2018-02-09T05:07:40.146Z,43.70
2018-02-09T05:10:15.897Z,45.67
2018-02-09T05:12:43.945Z,41.37
2018-02-09T05:15:16.601Z,42.17
2018-02-09T05:17:44.901Z,42.97
2018-02-09T05:20:16.421Z,41.53
2018-02-09T05:22:44.693Z,40.90
2018-02-09T05:25:13.010Z,44.67
2018-02-09T05:27:41.270Z,44.10
2018-02-09T05:30:15.858Z,40.50
2018-02-09T05:32:44.130Z,41.67
2018-02-09T05:35:12.394Z,41.60
2018-02-09T05:37:40.657Z,48.47
2018-02-09T05:40:15.354Z,39.37
2018-02-09T05:42:43.622Z,40.83
2018-02-09T05:45:11.529Z,42.10
2018-02-09T05:47:39.830Z,44.23
2018-02-09T05:50:14.110Z,50.37
2018-02-09T05:52:42.370Z,41.00
2018-02-09T05:55:11.809Z,38.90
2018-02-09T05:57:40.066Z,43.97
2018-02-09T06:00:15.773Z,37.77
2018-02-09T06:02:44.053Z,40.07
2018-02-09T06:05:13.576Z,37.37
2018-02-09T06:07:42.026Z,39.70
2018-02-09T06:10:15.792Z,48.07
2018-02-09T06:12:44.051Z,38.37
2018-02-09T06:15:12.384Z,41.27
2018-02-09T06:17:41.720Z,37.07
2018-02-09T06:20:12.250Z,39.73
2018-02-09T06:22:40.505Z,38.50
2018-02-09T06:25:15.411Z,42.00
2018-02-09T06:27:43.682Z,41.77
2018-02-09T06:30:16.167Z,41.70
2018-02-09T06:32:44.452Z,40.50
2018-02-09T06:35:12.737Z,40.00
2018-02-09T06:37:41.010Z,42.10
2018-02-09T06:40:13.435Z,41.30
2018-02-09T06:42:41.812Z,37.23
2018-02-09T06:45:11.479Z,37.00
2018-02-09T06:47:39.750Z,38.50
2018-02-09T06:50:20.677Z,39.77
2018-02-09T06:52:48.937Z,41.73
2018-02-09T06:55:17.230Z,38.73
2018-02-09T06:57:50.873Z,40.43
2018-02-09T07:00:19.136Z,42.13
2018-02-09T07:02:47.415Z,40.87
2018-02-09T07:05:15.698Z,43.10
2018-02-09T07:07:43.983Z,40.63
2018-02-09T07:10:14.838Z,40.33
2018-02-09T07:12:43.137Z,43.20
2018-02-09T07:15:12.291Z,40.60
2018-02-09T07:17:40.558Z,45.00
2018-02-09T07:20:18.662Z,43.10
2018-02-09T07:22:46.955Z,41.80
2018-02-09T07:25:15.273Z,40.60
2018-02-09T07:27:43.432Z,43.40
2018-02-09T07:30:11.902Z,39.40
2018-02-09T07:32:40.165Z,40.07
2018-02-09T07:35:14.398Z,41.80
2018-02-09T07:37:42.693Z,41.53
2018-02-09T07:40:15.812Z,41.50
2018-02-09T07:42:44.076Z,41.13
2018-02-09T07:45:13.908Z,42.20
2018-02-09T07:47:42.210Z,41.37
2018-02-09T07:50:15.905Z,43.13
2018-02-09T07:52:44.194Z,38.53
2018-02-09T07:55:17.312Z,41.73
2018-02-09T07:57:45.394Z,41.23
2018-02-09T08:00:16.355Z,40.10
2018-02-09T08:02:44.628Z,41.60
2018-02-09T08:05:15.578Z,40.87
2018-02-09T08:07:43.855Z,42.03
2018-02-09T08:10:17.157Z,41.23
2018-02-09T08:12:45.499Z,41.33
2018-02-09T08:15:13.765Z,40.57
2018-02-09T08:17:42.601Z,40.23
2018-02-09T08:20:10.874Z,40.63
2018-02-09T08:22:39.196Z,38.30
2018-02-09T08:25:11.959Z,40.83
2018-02-09T08:27:40.246Z,39.47
2018-02-09T08:30:13.502Z,38.50
2018-02-09T08:32:41.798Z,37.53
2018-02-09T08:35:11.818Z,38.83
2018-02-09T08:37:40.102Z,41.67
2018-02-09T08:40:08.577Z,44.80
2018-02-09T08:42:37.498Z,39.60
2018-02-09T08:45:10.112Z,42.13
2018-02-09T08:47:38.396Z,42.93
2018-02-09T08:50:15.471Z,42.10
2018-02-09T08:52:43.761Z,36.83
2018-02-09T08:55:12.046Z,40.90
2018-02-09T08:57:41.083Z,41.77
2018-02-09T09:00:13.737Z,40.17
2018-02-09T09:02:42.034Z,41.00
2018-02-09T09:05:16.047Z,41.27
2018-02-09T09:07:44.334Z,40.70
2018-02-09T09:10:12.627Z,38.70
2018-02-09T09:12:41.100Z,38.67
2018-02-09T09:15:10.952Z,44.13
2018-02-09T09:17:39.223Z,43.07
2018-02-09T09:20:11.046Z,40.90
2018-02-09T09:22:39.314Z,42.40
2018-02-09T09:25:13.266Z,43.63
2018-02-09T09:27:41.530Z,46.90
2018-02-09T09:30:15.528Z,40.17
2018-02-09T09:32:43.802Z,44.30
2018-02-09T09:35:14.573Z,42.27
2018-02-09T09:37:42.870Z,41.53
2018-02-09T09:40:11.153Z,43.67
2018-02-09T09:42:39.173Z,49.07
2018-02-09T09:45:09.104Z,43.37
2018-02-09T09:47:37.399Z,43.90
2018-02-09T09:50:11.355Z,40.73
2018-02-09T09:52:39.648Z,39.10
2018-02-09T09:55:14.558Z,36.37
2018-02-09T09:57:42.837Z,37.67
2018-02-09T10:00:10.979Z,35.90
2018-02-09T10:02:40.162Z,35.90
2018-02-09T10:05:13.091Z,34.40
2018-02-09T10:07:42.230Z,35.27
2018-02-09T10:10:13.231Z,34.47
2018-02-09T10:12:41.506Z,33.40
2018-02-09T10:15:13.826Z,33.97
2018-02-09T10:17:42.116Z,37.23
2018-02-09T10:20:16.683Z,32.80
2018-02-09T10:22:44.974Z,33.20
2018-02-09T10:25:13.258Z,36.80
2018-02-09T10:27:41.521Z,39.63
2018-02-09T10:30:14.206Z,36.60
2018-02-09T10:32:42.497Z,36.97
2018-02-09T10:35:12.393Z,36.33
2018-02-09T10:37:40.661Z,34.23
2018-02-09T10:40:15.540Z,36.37
2018-02-09T10:42:43.807Z,36.27
2018-02-09T10:45:13.491Z,38.27
2018-02-09T10:47:41.757Z,36.23
2018-02-09T10:50:14.010Z,38.37
2018-02-09T10:52:42.293Z,38.57
2018-02-09T10:55:11.130Z,36.80
2018-02-09T10:57:39.405Z,36.37
2018-02-09T11:00:08.149Z,38.60
2018-02-09T11:02:36.429Z,36.27
2018-02-09T11:05:10.219Z,37.87
2018-02-09T11:07:38.160Z,39.03
2018-02-09T11:10:18.035Z,37.80
2018-02-09T11:12:46.117Z,36.43
2018-02-09T11:15:14.402Z,40.03
2018-02-09T11:17:42.924Z,39.00
2018-02-09T11:20:12.486Z,39.97
2018-02-09T11:22:40.755Z,38.40
2018-02-09T11:25:09.943Z,39.97
2018-02-09T11:27:38.198Z,94.90
2018-02-09T11:30:07.675Z,34.80
2018-02-09T11:32:35.944Z,36.33
2018-02-09T11:35:04.238Z,37.63
2018-02-09T11:37:32.502Z,28.57
2018-02-09T11:40:00.784Z,34.77
2018-02-09T11:42:29.053Z,29.10
2018-02-09T11:44:57.324Z,32.20
2018-02-09T11:47:25.617Z,30.20
2018-02-09T11:49:53.906Z,33.77
2018-02-09T11:52:22.178Z,33.23
2018-02-09T11:54:50.446Z,33.30
2018-02-09T11:57:18.775Z,28.87
2018-02-09T11:59:47.067Z,32.10
2018-02-09T12:02:15.351Z,34.80
2018-02-09T12:04:43.634Z,30.17
2018-02-09T12:07:12.030Z,33.50
2018-02-09T12:09:40.292Z,32.23
2018-02-09T12:12:08.568Z,30.70
2018-02-09T12:14:36.850Z,29.87
2018-02-09T12:17:05.133Z,29.50
2018-02-09T12:19:33.410Z,30.67
2018-02-09T12:22:01.743Z,29.30
2018-02-09T12:24:30.019Z,33.37
2018-02-09T12:26:58.285Z,27.93
2018-02-09T12:29:26.548Z,27.50
2018-02-09T12:31:54.818Z,27.13
2018-02-09T12:34:23.085Z,30.70
2018-02-09T12:36:51.354Z,30.77
2018-02-09T12:39:19.693Z,27.10
2018-02-09T12:41:47.954Z,27.90
2018-02-09T12:44:16.954Z,24.67
2018-02-09T12:46:45.208Z,23.63
2018-02-09T12:49:13.490Z,24.20
2018-02-09T12:51:41.802Z,24.90
2018-02-09T12:54:10.348Z,24.27
2018-02-09T12:56:38.629Z,23.67
2018-02-09T12:59:06.924Z,38.60
2018-02-09T13:01:35.181Z,25.27
2018-02-09T13:04:03.458Z,29.10
2018-02-09T13:06:31.746Z,35.70
2018-02-09T13:09:00.009Z,27.57
2018-02-09T13:11:28.480Z,26.53
2018-02-09T13:13:56.747Z,27.47
2018-02-09T13:16:25.017Z,22.90
2018-02-09T13:18:53.292Z,21.10
2018-02-09T13:21:21.585Z,22.90
2018-02-09T13:24:00.865Z,23.87
2018-02-09T13:26:29.259Z,25.17
2018-02-09T13:28:59.588Z,27.90
2018-02-09T13:31:27.877Z,26.43
2018-02-09T13:33:56.134Z,25.47
2018-02-09T13:36:35.429Z,28.30
2018-02-09T13:39:03.510Z,25.23
2018-02-09T13:41:31.785Z,25.80
2018-02-09T13:44:00.142Z,26.00
2018-02-09T13:46:28.409Z,26.77
2018-02-09T13:48:56.695Z,24.50
2018-02-09T13:51:25.001Z,25.60
2018-02-09T13:53:54.807Z,27.53
2018-02-09T13:56:23.675Z,26.47
2018-02-09T13:58:52.080Z,24.80
2018-02-09T14:01:20.457Z,25.33
2018-02-09T14:03:48.752Z,26.23
2018-02-09T14:06:17.024Z,23.77
2018-02-09T14:08:45.289Z,23.43
2018-02-09T14:11:13.559Z,24.47
2018-02-09T14:13:41.873Z,24.30
2018-02-09T14:16:10.150Z,25.97
2018-02-09T14:18:38.416Z,24.63
2018-02-09T14:21:06.686Z,23.80
2018-02-09T14:23:35.575Z,23.40
2018-02-09T14:26:03.944Z,24.40
2018-02-09T14:28:32.217Z,22.70
2018-02-09T14:31:03.094Z,24.77
2018-02-09T14:33:31.641Z,24.63
2018-02-09T14:35:59.914Z,23.13
2018-02-09T14:38:28.188Z,23.00
2018-02-09T14:40:57.166Z,22.33
2018-02-09T14:43:25.434Z,24.87
2018-02-09T14:45:54.403Z,27.07
2018-02-09T14:48:22.945Z,26.57
2018-02-09T14:50:51.217Z,24.90
2018-02-09T14:53:19.531Z,24.77
2018-02-09T14:55:47.930Z,27.50
2018-02-09T14:58:16.274Z,27.67
2018-02-09T15:00:44.637Z,28.00
2018-02-09T15:03:12.949Z,27.70
2018-02-09T15:05:41.213Z,27.73
2018-02-09T15:08:09.486Z,29.97
2018-02-09T15:10:37.770Z,28.23
2018-02-09T15:13:06.052Z,28.13
2018-02-09T15:15:34.315Z,31.10
2018-02-09T15:18:02.574Z,28.90
2018-02-09T15:20:30.849Z,28.57
2018-02-09T15:22:59.185Z,27.60
2018-02-09T15:25:27.478Z,29.47
2018-02-09T15:27:55.753Z,30.43
2018-02-09T15:30:24.079Z,30.60
2018-02-09T15:32:52.353Z,31.37
2018-02-09T15:35:20.650Z,30.40
2018-02-09T15:37:48.926Z,26.10
2018-02-09T15:40:17.179Z,28.10
2018-02-09T15:42:45.450Z,29.37
2018-02-09T15:45:13.988Z,26.93
2018-02-09T15:47:42.269Z,27.07
2018-02-09T15:50:16.638Z,27.13
2018-02-09T15:52:44.901Z,28.83
2018-02-09T15:55:16.767Z,27.87
2018-02-09T15:57:45.102Z,29.63
2018-02-09T16:00:13.525Z,28.40
2018-02-09T16:02:41.807Z,24.70
2018-02-09T16:05:16.234Z,26.47
2018-02-09T16:07:44.502Z,27.20
2018-02-09T16:10:12.808Z,28.13
2018-02-09T16:12:41.063Z,28.40
2018-02-09T16:15:15.012Z,26.97
2018-02-09T16:17:43.321Z,26.60
2018-02-09T16:20:11.618Z,27.40
2018-02-09T16:22:39.873Z,27.67
2018-02-09T16:25:14.927Z,26.20
2018-02-09T16:27:43.190Z,25.43
2018-02-09T16:30:14.178Z,25.97
2018-02-09T16:32:42.457Z,26.97
2018-02-09T16:35:12.075Z,25.87
2018-02-09T16:37:40.355Z,25.73
2018-02-09T16:40:08.672Z,27.80
2018-02-09T16:42:36.754Z,26.90
2018-02-09T16:45:07.417Z,26.30
2018-02-09T16:47:35.684Z,27.90
2018-02-09T16:50:04.089Z,24.73
2018-02-09T16:52:33.666Z,27.53
2018-02-09T16:55:01.961Z,27.07
2018-02-09T16:57:30.226Z,26.80
2018-02-09T16:59:58.513Z,25.37
2018-02-09T17:02:26.808Z,26.67
2018-02-09T17:04:55.086Z,24.63
2018-02-09T17:07:23.382Z,23.87
2018-02-09T17:09:51.663Z,23.83
2018-02-09T17:12:20.683Z,24.67
2018-02-09T17:14:49.407Z,24.97
2018-02-09T17:17:17.670Z,26.10
2018-02-09T17:19:46.718Z,25.40
2018-02-09T17:22:14.986Z,26.73
2018-02-09T17:24:43.275Z,25.23
2018-02-09T17:27:11.540Z,33.10
2018-02-09T17:29:39.814Z,25.13
2018-02-09T17:32:08.114Z,24.80
2018-02-09T17:34:36.401Z,26.47
2018-02-09T17:37:04.663Z,25.80
2018-02-09T17:39:32.929Z,25.23
2018-02-09T17:42:01.209Z,25.37
2018-02-09T17:44:28.788Z,23.50
2018-02-09T17:46:57.130Z,28.10
2018-02-09T17:49:25.456Z,27.37
2018-02-09T17:51:53.728Z,28.93
2018-02-09T17:54:22.741Z,27.30
2018-02-09T17:56:51.090Z,27.27
2018-02-09T17:59:19.439Z,26.40
2018-02-09T18:01:47.724Z,26.47
2018-02-09T18:04:16.005Z,26.07
2018-02-09T18:06:44.276Z,27.13
2018-02-09T18:09:12.541Z,26.43
2018-02-09T18:11:40.818Z,25.73
2018-02-09T18:14:09.109Z,25.00
2018-02-09T18:16:37.374Z,24.40
2018-02-09T18:19:05.667Z,27.20
2018-02-09T18:21:34.152Z,26.60
2018-02-09T18:24:02.450Z,25.43
2018-02-09T18:26:30.723Z,26.90
2018-02-09T18:28:58.999Z,26.40
2018-02-09T18:31:27.262Z,26.93
2018-02-09T18:33:55.517Z,26.90
2018-02-09T18:36:23.853Z,26.20
2018-02-09T18:38:52.171Z,26.37
2018-02-09T18:41:20.435Z,27.50
2018-02-09T18:43:48.922Z,27.17
2018-02-09T18:46:17.204Z,25.07
2018-02-09T18:48:45.473Z,27.53
2018-02-09T18:51:13.806Z,27.80
2018-02-09T18:53:41.636Z,26.80
2018-02-09T18:56:10.149Z,27.23
2018-02-09T18:58:38.421Z,26.17
2018-02-09T19:01:06.757Z,28.40
2018-02-09T19:03:35.066Z,28.63
2018-02-09T19:06:03.407Z,26.47
2018-02-09T19:08:31.660Z,25.30
2018-02-09T19:10:59.933Z,26.10
2018-02-09T19:13:28.207Z,25.43
2018-02-09T19:15:56.482Z,26.60
2018-02-09T19:18:25.495Z,26.13
2018-02-09T19:20:53.771Z,25.20
2018-02-09T19:23:22.235Z,26.80
2018-02-09T19:25:50.526Z,28.13
2018-02-09T19:28:18.826Z,25.50
2018-02-09T19:30:47.207Z,26.07
2018-02-09T19:33:15.466Z,24.93
2018-02-09T19:35:43.725Z,25.53
2018-02-09T19:38:12.016Z,25.93
2018-02-09T19:40:40.277Z,25.90
2018-02-09T19:43:08.537Z,24.47
2018-02-09T19:45:36.830Z,25.47
2018-02-09T19:48:05.106Z,24.43
2018-02-09T19:50:33.392Z,24.27
2018-02-09T19:53:01.679Z,23.53
2018-02-09T19:55:29.938Z,23.30
2018-02-09T19:57:58.221Z,22.07
2018-02-09T20:00:29.970Z,23.47
2018-02-09T20:02:58.334Z,21.27
2018-02-09T20:05:26.601Z,21.90
2018-02-09T20:07:54.882Z,23.33
2018-02-09T20:10:23.183Z,23.10
2018-02-09T20:12:51.480Z,22.20
2018-02-09T20:15:20.105Z,21.57
2018-02-09T20:17:48.361Z,22.37
2018-02-09T20:20:16.432Z,22.77
2018-02-09T20:22:45.418Z,22.50
2018-02-09T20:25:16.164Z,22.37
2018-02-09T20:27:44.493Z,21.67
2018-02-09T20:30:16.689Z,21.67
2018-02-09T20:32:46.779Z,21.27
2018-02-09T20:35:20.247Z,20.77
2018-02-09T20:37:50.966Z,20.70
2018-02-09T20:40:20.408Z,22.23
2018-02-09T20:42:48.697Z,22.03
2018-02-09T20:45:18.849Z,21.37
2018-02-09T20:47:47.881Z,23.10
2018-02-09T20:50:16.833Z,21.23
2018-02-09T20:52:45.113Z,22.97
2018-02-09T20:55:16.726Z,22.37
2018-02-09T20:57:44.973Z,20.50
2018-02-09T21:00:17.930Z,20.07
2018-02-09T21:02:46.334Z,22.47
2018-02-09T21:05:18.517Z,23.20
2018-02-09T21:07:46.784Z,22.33
2018-02-09T21:10:19.708Z,22.47
2018-02-09T21:12:47.978Z,22.67
2018-02-09T21:15:17.127Z,23.70
2018-02-09T21:17:46.100Z,23.17
2018-02-09T21:20:15.660Z,21.50
2018-02-09T21:22:43.998Z,21.83
2018-02-09T21:25:16.714Z,23.17
2018-02-09T21:27:44.994Z,22.83
2018-02-09T21:30:17.121Z,23.03
2018-02-09T21:32:45.409Z,27.03
2018-02-09T21:35:16.365Z,27.50
2018-02-09T21:37:45.104Z,29.07
2018-02-09T21:40:17.482Z,27.93
2018-02-09T21:42:45.770Z,26.60
2018-02-09T21:45:18.363Z,27.33
2018-02-09T21:47:46.629Z,25.37
2018-02-09T21:50:16.879Z,26.17
2018-02-09T21:52:45.161Z,28.37
2018-02-09T21:55:15.883Z,27.90
2018-02-09T21:57:43.809Z,24.47
2018-02-09T22:00:17.050Z,24.70
2018-02-09T22:02:45.329Z,28.07
2018-02-09T22:05:18.871Z,27.33
2018-02-09T22:07:47.310Z,26.10
2018-02-09T22:10:19.366Z,25.27
2018-02-09T22:12:47.632Z,24.53
2018-02-09T22:15:16.645Z,26.43
2018-02-09T22:17:44.670Z,26.70
2018-02-09T22:20:16.288Z,23.60
2018-02-09T22:22:44.566Z,24.40
2018-02-09T22:25:16.777Z,24.33
2018-02-09T22:27:45.054Z,24.27
2018-02-09T22:30:16.662Z,23.10
2018-02-09T22:32:44.986Z,25.33
2018-02-09T22:35:16.809Z,24.40
2018-02-09T22:37:45.072Z,23.33
2018-02-09T22:40:16.760Z,25.17
2018-02-09T22:42:44.761Z,25.63
2018-02-09T22:45:15.445Z,23.00
2018-02-09T22:47:43.699Z,24.83
2018-02-09T22:50:14.943Z,26.57
2018-02-09T22:52:43.206Z,23.97
2018-02-09T22:55:18.609Z,25.20
2018-02-09T22:57:47.373Z,24.43
2018-02-09T23:00:17.451Z,23.70
2018-02-09T23:02:45.724Z,22.93
2018-02-09T23:05:17.284Z,23.47
2018-02-09T23:07:45.560Z,23.50
2018-02-09T23:10:16.490Z,23.23
2018-02-09T23:12:44.788Z,23.10
2018-02-09T23:15:17.293Z,24.00
2018-02-09T23:17:45.569Z,22.43
2018-02-09T23:20:17.107Z,21.13
2018-02-09T23:22:45.384Z,22.53
2018-02-09T23:25:16.602Z,22.57
2018-02-09T23:27:44.933Z,22.43
2018-02-09T23:30:19.605Z,23.33
2018-02-09T23:32:47.885Z,22.50
2018-02-09T23:35:16.163Z,21.43
2018-02-09T23:37:44.422Z,20.50
2018-02-09T23:40:16.996Z,20.50
2018-02-09T23:42:45.291Z,22.03
2018-02-09T23:45:17.965Z,20.93
2018-02-09T23:47:46.336Z,22.00
2018-02-09T23:50:16.951Z,22.57
2018-02-09T23:52:45.370Z,22.10
2018-02-09T23:55:17.923Z,20.90
2018-02-09T23:57:46.191Z,21.73
